Time;durP1;ratioP1;P1;durP2;ratioP2;P2;SDS_P1;SDS_P2;PMS_P1;PMS_P2;Temp;Humidity;BMP_temperature;BMP_pressure;BME280_temperature;BME280_humidity;BME280_pressure;Samples;Min_cycle;Max_cycle;Signal;HPM_P1;HPM_P2
2023/03/16 00:02:47;;;;;;;45.80;20.50;;;;;;;-128.00;-1.00;-1.00;133808;1275;1002521;-80
2023/03/16 00:05:49;;;;;;;54.00;20.80;;;;;;;-128.00;-1.00;-1.00;133801;1275;1003049;-80
2023/03/16 00:08:57;;;;;;;44.70;19.20;;;;;;;-128.00;-1.00;-1.00;133831;1275;1002339;-81
2023/03/16 00:12:01;;;;;;;46.20;20.10;;;;;;;-128.00;-1.00;-1.00;133806;1275;1002324;-80
2023/03/16 00:15:04;;;;;;;52.00;19.40;;;;;;;-128.00;-1.00;-1.00;133804;1275;1001771;-81
2023/03/16 00:18:07;;;;;;;67.50;20.50;;;;;;;-128.00;-1.00;-1.00;133821;1275;1002649;-81
2023/03/16 00:21:09;;;;;;;52.40;20.10;;;;;;;-128.00;-1.00;-1.00;133840;1275;1002244;-81
2023/03/16 00:24:12;;;;;;;50.50;19.20;;;;;;;-128.00;-1.00;-1.00;133841;1275;1003052;-81
2023/03/16 00:27:14;;;;;;;36.70;17.80;;;;;;;-128.00;-1.00;-1.00;133826;1275;1002493;-81
2023/03/16 00:30:16;;;;;;;40.90;17.80;;;;;;;-128.00;-1.00;-1.00;133822;1275;1002377;-81
2023/03/16 00:33:19;;;;;;;37.30;18.40;;;;;;;-128.00;-1.00;-1.00;133830;1275;1001923;-81
2023/03/16 00:36:21;;;;;;;41.10;18.70;;;;;;;-128.00;-1.00;-1.00;133832;1275;1002496;-81
2023/03/16 00:39:24;;;;;;;32.20;17.00;;;;;;;-128.00;-1.00;-1.00;133841;1275;1002249;-82
2023/03/16 00:42:26;;;;;;;48.50;17.90;;;;;;;-128.00;-1.00;-1.00;133844;1274;1002348;-82
2023/03/16 00:45:29;;;;;;;39.30;17.90;;;;;;;-128.00;-1.00;-1.00;133875;1275;1001895;-82
2023/03/16 00:48:33;;;;;;;40.70;19.60;;;;;;;-128.00;-1.00;-1.00;133791;1275;1002591;-81
2023/03/16 00:51:35;;;;;;;42.50;19.40;;;;;;;-128.00;-1.00;-1.00;133840;1275;1002001;-81
2023/03/16 00:54:38;;;;;;;42.60;18.60;;;;;;;-128.00;-1.00;-1.00;133826;1275;1002425;-82
2023/03/16 00:57:40;;;;;;;80.80;23.60;;;;;;;-128.00;-1.00;-1.00;133840;1275;1002348;-82
2023/03/16 01:00:43;;;;;;;60.70;21.30;;;;;;;-128.00;-1.00;-1.00;133802;1274;1002244;-81
2023/03/16 01:03:45;;;;;;;61.40;20.50;;;;;;;-128.00;-1.00;-1.00;133845;1275;1002202;-80
2023/03/16 01:06:48;;;;;;;45.50;21.30;;;;;;;-128.00;-1.00;-1.00;133825;1275;1001858;-81
2023/03/16 01:09:50;;;;;;;45.10;21.90;;;;;;;-128.00;-1.00;-1.00;133788;1274;1001785;-81
2023/03/16 01:12:54;;;;;;;47.00;21.60;;;;;;;-128.00;-1.00;-1.00;133858;1275;1002072;-81
2023/03/16 01:15:57;;;;;;;52.60;22.10;;;;;;;-128.00;-1.00;-1.00;133833;1275;1002176;-80
2023/03/16 01:19:00;;;;;;;56.20;23.30;;;;;;;-128.00;-1.00;-1.00;133801;1274;1002307;-81
2023/03/16 01:22:02;;;;;;;52.70;22.20;;;;;;;-128.00;-1.00;-1.00;133808;1274;1002365;-81
2023/03/16 01:25:05;;;;;;;53.90;21.70;;;;;;;-128.00;-1.00;-1.00;133840;1274;1002581;-81
2023/03/16 01:28:07;;;;;;;59.10;22.80;;;;;;;-128.00;-1.00;-1.00;133824;1274;1002314;-81
2023/03/16 01:31:10;;;;;;;57.60;23.90;;;;;;;-128.00;-1.00;-1.00;133833;1274;1002049;-80
2023/03/16 01:34:15;;;;;;;51.90;22.00;;;;;;;-128.00;-1.00;-1.00;133832;1274;1001975;-81
2023/03/16 01:37:17;;;;;;;51.30;22.10;;;;;;;-128.00;-1.00;-1.00;133887;1274;1002252;-81
2023/03/16 01:40:20;;;;;;;52.30;23.30;;;;;;;-128.00;-1.00;-1.00;133863;1275;1001663;-80
2023/03/16 01:43:23;;;;;;;70.00;24.00;;;;;;;-128.00;-1.00;-1.00;133841;1275;1002953;-82
2023/03/16 01:46:26;;;;;;;65.00;24.50;;;;;;;-128.00;-1.00;-1.00;133836;1275;1002900;-81
2023/03/16 01:49:28;;;;;;;54.30;22.70;;;;;;;-128.00;-1.00;-1.00;133869;1275;1002362;-81
2023/03/16 01:52:32;;;;;;;53.30;21.90;;;;;;;-128.00;-1.00;-1.00;133870;1274;1001957;-81
2023/03/16 01:55:35;;;;;;;103.20;23.80;;;;;;;-128.00;-1.00;-1.00;133839;1275;1002676;-80
2023/03/16 01:58:37;;;;;;;54.20;23.40;;;;;;;-128.00;-1.00;-1.00;133832;1275;1002013;-81
2023/03/16 02:01:41;;;;;;;86.90;24.10;;;;;;;-128.00;-1.00;-1.00;133823;1275;1002661;-84
2023/03/16 02:04:43;;;;;;;67.90;22.60;;;;;;;-128.00;-1.00;-1.00;133860;1275;1002234;-81
2023/03/16 02:07:46;;;;;;;80.60;22.20;;;;;;;-128.00;-1.00;-1.00;133864;1275;1002368;-82
2023/03/16 02:10:48;;;;;;;48.70;21.90;;;;;;;-128.00;-1.00;-1.00;133852;1274;1002584;-81
2023/03/16 02:13:51;;;;;;;54.90;21.70;;;;;;;-128.00;-1.00;-1.00;133820;1274;1002974;-82
2023/03/16 02:16:55;;;;;;;41.60;19.90;;;;;;;-128.00;-1.00;-1.00;133848;1274;1002499;-81
2023/03/16 02:19:58;;;;;;;56.90;21.40;;;;;;;-128.00;-1.00;-1.00;133839;1275;1002029;-82
2023/03/16 02:23:00;;;;;;;71.60;22.40;;;;;;;-128.00;-1.00;-1.00;133866;1275;1002264;-81
2023/03/16 02:26:02;;;;;;;56.70;20.80;;;;;;;-128.00;-1.00;-1.00;133814;1275;1002199;-82
2023/03/16 02:29:05;;;;;;;51.20;21.70;;;;;;;-128.00;-1.00;-1.00;133835;1275;1002588;-81
2023/03/16 02:32:07;;;;;;;42.40;20.60;;;;;;;-128.00;-1.00;-1.00;133842;1274;1002164;-81
2023/03/16 02:35:11;;;;;;;94.50;25.20;;;;;;;-128.00;-1.00;-1.00;133883;1275;1002561;-81
2023/03/16 02:38:14;;;;;;;45.80;21.10;;;;;;;-128.00;-1.00;-1.00;133812;1274;1001695;-81
2023/03/16 02:41:16;;;;;;;58.00;22.70;;;;;;;-128.00;-1.00;-1.00;133842;1275;1002325;-81
2023/03/16 02:44:18;;;;;;;62.30;24.40;;;;;;;-128.00;-1.00;-1.00;133803;1275;1002003;-81
2023/03/16 02:47:21;;;;;;;48.10;23.30;;;;;;;-128.00;-1.00;-1.00;133793;1275;1001675;-81
2023/03/16 02:50:23;;;;;;;50.70;24.60;;;;;;;-128.00;-1.00;-1.00;133833;1275;1002416;-81
2023/03/16 02:53:26;;;;;;;49.90;22.90;;;;;;;-128.00;-1.00;-1.00;133839;1275;1002329;-81
2023/03/16 02:56:28;;;;;;;51.70;24.40;;;;;;;-128.00;-1.00;-1.00;133834;1275;1002726;-81
2023/03/16 02:59:31;;;;;;;79.70;25.10;;;;;;;-128.00;-1.00;-1.00;133813;1275;1001980;-83
2023/03/16 03:02:33;;;;;;;114.40;28.70;;;;;;;-128.00;-1.00;-1.00;133817;1275;1002374;-84
2023/03/16 03:05:38;;;;;;;56.50;25.50;;;;;;;-128.00;-1.00;-1.00;133870;1274;1002445;-81
2023/03/16 03:08:41;;;;;;;70.50;28.20;;;;;;;-128.00;-1.00;-1.00;133863;1275;1002141;-82
2023/03/16 03:11:46;;;;;;;84.70;28.80;;;;;;;-128.00;-1.00;-1.00;133833;1275;1002377;-83
2023/03/16 03:14:49;;;;;;;61.00;27.20;;;;;;;-128.00;-1.00;-1.00;133854;1275;1002390;-82
2023/03/16 03:17:53;;;;;;;70.70;29.30;;;;;;;-128.00;-1.00;-1.00;133859;1275;1002092;-83
2023/03/16 03:20:56;;;;;;;115.30;28.60;;;;;;;-128.00;-1.00;-1.00;133875;1275;1002449;-82
2023/03/16 03:23:58;;;;;;;55.80;25.90;;;;;;;-128.00;-1.00;-1.00;133894;1275;1002364;-82
2023/03/16 03:27:04;;;;;;;61.10;25.20;;;;;;;-128.00;-1.00;-1.00;133893;1275;1002184;-82
2023/03/16 03:30:06;;;;;;;64.00;25.80;;;;;;;-128.00;-1.00;-1.00;133901;1275;1002260;-80
2023/03/16 03:33:09;;;;;;;194.70;34.20;;;;;;;-128.00;-1.00;-1.00;134032;1275;1002254;-82
2023/03/16 03:36:11;;;;;;;80.00;26.10;;;;;;;-128.00;-1.00;-1.00;133999;1259;1002352;-81
2023/03/16 03:39:14;;;;;;;49.10;22.00;;;;;;;-128.00;-1.00;-1.00;133880;1275;1002904;-81
2023/03/16 03:42:16;;;;;;;42.80;22.20;;;;;;;-128.00;-1.00;-1.00;133881;1275;1002444;-81
2023/03/16 03:45:18;;;;;;;44.50;21.80;;;;;;;-128.00;-1.00;-1.00;133829;1275;1002804;-81
2023/03/16 03:48:21;;;;;;;43.20;21.40;;;;;;;-128.00;-1.00;-1.00;133855;1275;1002977;-81
2023/03/16 03:51:23;;;;;;;48.20;20.10;;;;;;;-128.00;-1.00;-1.00;133839;1275;1002198;-83
2023/03/16 03:54:26;;;;;;;57.20;21.50;;;;;;;-128.00;-1.00;-1.00;133882;1275;1002020;-82
2023/03/16 03:57:28;;;;;;;80.70;23.20;;;;;;;-128.00;-1.00;-1.00;133839;1275;1002118;-81
2023/03/16 04:00:35;;;;;;;113.20;24.30;;;;;;;-128.00;-1.00;-1.00;133866;1275;1002912;-81
2023/03/16 04:03:38;;;;;;;55.30;21.20;;;;;;;-128.00;-1.00;-1.00;133829;1275;1002377;-81
2023/03/16 04:06:41;;;;;;;53.50;19.90;;;;;;;-128.00;-1.00;-1.00;133837;1275;1002069;-81
2023/03/16 04:09:43;;;;;;;48.80;20.00;;;;;;;-128.00;-1.00;-1.00;133819;1275;1001955;-82
2023/03/16 04:12:46;;;;;;;63.80;21.20;;;;;;;-128.00;-1.00;-1.00;133858;1275;1002052;-82
2023/03/16 04:15:48;;;;;;;48.00;19.30;;;;;;;-128.00;-1.00;-1.00;133863;1274;1002642;-82
2023/03/16 04:18:50;;;;;;;55.20;19.20;;;;;;;-128.00;-1.00;-1.00;133864;1275;1001984;-82
2023/03/16 04:21:53;;;;;;;39.70;18.60;;;;;;;-128.00;-1.00;-1.00;133843;1275;1002355;-82
2023/03/16 04:24:55;;;;;;;39.60;18.30;;;;;;;-128.00;-1.00;-1.00;133800;1274;1002479;-82
2023/03/16 04:27:58;;;;;;;42.90;18.70;;;;;;;-128.00;-1.00;-1.00;133826;1274;1002675;-81
2023/03/16 04:31:00;;;;;;;90.90;21.00;;;;;;;-128.00;-1.00;-1.00;133803;1274;1002202;-82
2023/03/16 04:34:03;;;;;;;60.60;18.80;;;;;;;-128.00;-1.00;-1.00;133816;1274;1002334;-82
2023/03/16 04:37:05;;;;;;;35.90;17.40;;;;;;;-128.00;-1.00;-1.00;133811;1274;1002160;-82
2023/03/16 04:40:14;;;;;;;36.60;16.40;;;;;;;-128.00;-1.00;-1.00;133879;1274;1002262;-80
2023/03/16 04:43:16;;;;;;;61.30;19.00;;;;;;;-128.00;-1.00;-1.00;133875;1274;1002256;-80
2023/03/16 04:46:21;;;;;;;37.50;17.20;;;;;;;-128.00;-1.00;-1.00;133830;1274;1002208;-82
2023/03/16 04:49:23;;;;;;;39.90;17.40;;;;;;;-128.00;-1.00;-1.00;133828;1274;1002366;-80
2023/03/16 04:52:27;;;;;;;38.30;18.20;;;;;;;-128.00;-1.00;-1.00;133777;1274;1002354;-80
2023/03/16 04:55:29;;;;;;;262.00;31.10;;;;;;;-128.00;-1.00;-1.00;133813;1275;1002515;-81
2023/03/16 04:58:32;;;;;;;71.70;19.80;;;;;;;-128.00;-1.00;-1.00;133808;1274;1002303;-81
2023/03/16 05:01:34;;;;;;;76.00;21.20;;;;;;;-128.00;-1.00;-1.00;133799;1275;1002813;-80
2023/03/16 05:04:37;;;;;;;37.20;17.40;;;;;;;-128.00;-1.00;-1.00;133774;1275;1002317;-80
2023/03/16 05:07:40;;;;;;;1611.10;148.00;;;;;;;-128.00;-1.00;-1.00;133828;1275;1002604;-82
2023/03/16 05:10:43;;;;;;;136.10;24.20;;;;;;;-128.00;-1.00;-1.00;133803;1275;1001817;-81
2023/03/16 05:13:45;;;;;;;59.90;20.10;;;;;;;-128.00;-1.00;-1.00;133781;1274;1002498;-78
2023/03/16 05:16:48;;;;;;;53.30;20.90;;;;;;;-128.00;-1.00;-1.00;133751;1275;1002429;-80
2023/03/16 05:19:50;;;;;;;51.00;18.70;;;;;;;-128.00;-1.00;-1.00;133766;1259;1002033;-80
2023/03/16 05:22:53;;;;;;;55.90;20.00;;;;;;;-128.00;-1.00;-1.00;133753;1275;1002473;-79
2023/03/16 05:25:58;;;;;;;44.70;21.10;;;;;;;-128.00;-1.00;-1.00;133710;1275;1002525;-79
2023/03/16 05:29:01;;;;;;;232.10;33.90;;;;;;;-128.00;-1.00;-1.00;133771;1275;1002217;-81
2023/03/16 05:32:03;;;;;;;126.40;28.10;;;;;;;-128.00;-1.00;-1.00;133741;1275;1001882;-80
2023/03/16 05:35:06;;;;;;;107.70;31.90;;;;;;;-128.00;-1.00;-1.00;133865;1275;1002571;-80
2023/03/16 05:38:08;;;;;;;77.00;29.00;;;;;;;-128.00;-1.00;-1.00;133840;1275;1002538;-80
2023/03/16 05:41:11;;;;;;;631.40;65.60;;;;;;;-128.00;-1.00;-1.00;133833;1274;1002578;-80
2023/03/16 05:44:13;;;;;;;72.30;27.10;;;;;;;-128.00;-1.00;-1.00;133836;1275;1002199;-82
2023/03/16 05:47:16;;;;;;;71.30;26.90;;;;;;;-128.00;-1.00;-1.00;133806;1275;1001983;-80
2023/03/16 05:50:18;;;;;;;70.60;26.80;;;;;;;-128.00;-1.00;-1.00;133778;1275;1002229;-79
2023/03/16 05:53:22;;;;;;;65.30;27.40;;;;;;;-128.00;-1.00;-1.00;133810;1275;1002309;-80
2023/03/16 05:56:25;;;;;;;52.00;25.90;;;;;;;-128.00;-1.00;-1.00;133790;1275;1002108;-80
2023/03/16 05:59:27;;;;;;;69.40;27.10;;;;;;;-128.00;-1.00;-1.00;133815;1275;1002634;-83
2023/03/16 06:02:30;;;;;;;126.50;29.10;;;;;;;-128.00;-1.00;-1.00;133847;1275;1002598;-78
2023/03/16 06:05:32;;;;;;;64.60;26.00;;;;;;;-128.00;-1.00;-1.00;133816;1274;1002605;-79
2023/03/16 06:08:35;;;;;;;64.70;28.80;;;;;;;-128.00;-1.00;-1.00;133794;1274;1002391;-78
2023/03/16 06:11:40;;;;;;;61.70;28.00;;;;;;;-128.00;-1.00;-1.00;133766;1275;1002591;-78
2023/03/16 06:14:43;;;;;;;81.90;34.20;;;;;;;-128.00;-1.00;-1.00;133814;1274;1002328;-78
2023/03/16 06:17:48;;;;;;;;;;;;;;;-128.00;-1.00;-1.00;133815;1274;1002247;-78
2023/03/16 06:20:50;;;;;;;122.90;45.80;;;;;;;-128.00;-1.00;-1.00;133792;1274;1002896;-78
2023/03/16 06:23:53;;;;;;;101.30;47.50;;;;;;;-128.00;-1.00;-1.00;133820;1274;1001977;-78
2023/03/16 06:26:55;;;;;;;86.30;37.30;;;;;;;-128.00;-1.00;-1.00;133837;1275;1002160;-78
2023/03/16 06:29:58;;;;;;;71.10;31.30;;;;;;;-128.00;-1.00;-1.00;133789;1275;1002046;-78
2023/03/16 06:33:01;;;;;;;58.40;29.10;;;;;;;-128.00;-1.00;-1.00;133776;1275;1002367;-78
2023/03/16 06:36:03;;;;;;;65.80;31.90;;;;;;;-128.00;-1.00;-1.00;133813;1275;1002833;-77
2023/03/16 06:39:05;;;;;;;71.10;35.70;;;;;;;-128.00;-1.00;-1.00;133836;1274;1002146;-77
2023/03/16 06:42:08;;;;;;;60.80;31.60;;;;;;;-128.00;-1.00;-1.00;133816;1274;1002352;-77
2023/03/16 06:45:11;;;;;;;66.40;35.00;;;;;;;-128.00;-1.00;-1.00;133802;1275;1002769;-77
2023/03/16 06:48:14;;;;;;;64.90;33.80;;;;;;;-128.00;-1.00;-1.00;133786;1275;1002057;-78
2023/03/16 06:51:16;;;;;;;62.40;30.60;;;;;;;-128.00;-1.00;-1.00;133800;1274;1002526;-77
2023/03/16 06:54:19;;;;;;;55.60;28.80;;;;;;;-128.00;-1.00;-1.00;133783;1274;1002505;-78
2023/03/16 06:57:21;;;;;;;55.30;29.00;;;;;;;-128.00;-1.00;-1.00;133768;1274;1002188;-78
2023/03/16 07:00:24;;;;;;;56.00;26.80;;;;;;;-128.00;-1.00;-1.00;133853;1274;1002575;-78
2023/03/16 07:03:26;;;;;;;57.70;30.50;;;;;;;-128.00;-1.00;-1.00;133842;1274;1002346;-78
2023/03/16 07:06:30;;;;;;;62.40;30.60;;;;;;;-128.00;-1.00;-1.00;133869;1274;1002732;-79
2023/03/16 07:09:32;;;;;;;49.80;27.00;;;;;;;-128.00;-1.00;-1.00;133869;1274;1002285;-79
2023/03/16 07:12:35;;;;;;;55.40;25.10;;;;;;;-128.00;-1.00;-1.00;133686;1274;1002431;-78
2023/03/16 07:15:37;;;;;;;45.50;25.60;;;;;;;-128.00;-1.00;-1.00;133818;1275;1002058;-78
2023/03/16 07:18:43;;;;;;;51.50;27.50;;;;;;;-128.00;-1.00;-1.00;133781;1274;1002519;-79
2023/03/16 07:21:45;;;;;;;43.00;23.60;;;;;;;-128.00;-1.00;-1.00;133792;1275;1002237;-78
2023/03/16 07:24:50;;;;;;;57.60;26.40;;;;;;;-128.00;-1.00;-1.00;133808;1275;1002872;-80
2023/03/16 07:27:53;;;;;;;52.90;27.40;;;;;;;-128.00;-1.00;-1.00;133819;1275;1002645;-79
2023/03/16 07:30:55;;;;;;;70.50;25.10;;;;;;;-128.00;-1.00;-1.00;133809;1274;1001735;-79
2023/03/16 07:33:58;;;;;;;46.00;25.30;;;;;;;-128.00;-1.00;-1.00;133798;1275;1002032;-79
2023/03/16 07:37:01;;;;;;;41.30;23.30;;;;;;;-128.00;-1.00;-1.00;133791;1275;1002085;-79
2023/03/16 07:40:04;;;;;;;42.80;24.60;;;;;;;-128.00;-1.00;-1.00;133805;1274;1001936;-80
2023/03/16 07:43:06;;;;;;;37.80;23.00;;;;;;;-128.00;-1.00;-1.00;133777;1274;1002499;-80
2023/03/16 07:46:09;;;;;;;45.00;22.10;;;;;;;-128.00;-1.00;-1.00;133806;1274;1003523;-79
2023/03/16 07:49:12;;;;;;;43.90;23.20;;;;;;;-128.00;-1.00;-1.00;133850;1274;1002364;-78
2023/03/16 07:52:14;;;;;;;41.70;21.30;;;;;;;-128.00;-1.00;-1.00;133824;1275;1002185;-79
2023/03/16 07:55:17;;;;;;;41.90;22.40;;;;;;;-128.00;-1.00;-1.00;133825;1274;1002135;-79
2023/03/16 07:58:20;;;;;;;40.80;21.10;;;;;;;-128.00;-1.00;-1.00;133808;1274;1002250;-80
2023/03/16 08:01:23;;;;;;;39.50;22.10;;;;;;;-128.00;-1.00;-1.00;133823;1274;1002291;-79
2023/03/16 08:04:25;;;;;;;37.30;20.40;;;;;;;-128.00;-1.00;-1.00;133818;1275;1002170;-79
2023/03/16 08:07:31;;;;;;;40.00;20.80;;;;;;;-128.00;-1.00;-1.00;133815;1275;1002555;-78
2023/03/16 08:10:33;;;;;;;38.60;18.80;;;;;;;-128.00;-1.00;-1.00;133836;1275;1001701;-78
2023/03/16 08:13:36;;;;;;;38.10;21.70;;;;;;;-128.00;-1.00;-1.00;133806;1275;1001918;-78
2023/03/16 08:16:38;;;;;;;44.70;21.40;;;;;;;-128.00;-1.00;-1.00;133823;1274;1002338;-80
2023/03/16 08:19:41;;;;;;;43.30;21.90;;;;;;;-128.00;-1.00;-1.00;133789;1274;1002281;-79
2023/03/16 08:22:45;;;;;;;45.30;20.90;;;;;;;-128.00;-1.00;-1.00;133788;1275;1002327;-79
2023/03/16 08:25:47;;;;;;;39.90;18.80;;;;;;;-128.00;-1.00;-1.00;133808;1275;1002431;-79
2023/03/16 08:28:50;;;;;;;34.10;18.30;;;;;;;-128.00;-1.00;-1.00;133815;1274;1002344;-79
2023/03/16 08:31:53;;;;;;;35.80;19.50;;;;;;;-128.00;-1.00;-1.00;133829;1274;1002217;-79
2023/03/16 08:34:56;;;;;;;39.70;19.50;;;;;;;-128.00;-1.00;-1.00;133835;1274;1001969;-79
2023/03/16 08:37:58;;;;;;;32.00;17.40;;;;;;;-128.00;-1.00;-1.00;133803;1275;1001866;-79
2023/03/16 08:41:01;;;;;;;28.40;15.10;;;;;;;-128.00;-1.00;-1.00;133811;1275;1002616;-79
2023/03/16 08:44:03;;;;;;;31.30;13.90;;;;;;;-128.00;-1.00;-1.00;133782;1274;1002033;-79
2023/03/16 08:47:06;;;;;;;28.30;15.90;;;;;;;-128.00;-1.00;-1.00;133812;1274;1002305;-80
2023/03/16 08:50:08;;;;;;;24.60;12.90;;;;;;;-128.00;-1.00;-1.00;133867;1274;1003026;-79
2023/03/16 08:53:11;;;;;;;21.00;10.40;;;;;;;-128.00;-1.00;-1.00;133824;1274;1002539;-79
2023/03/16 08:56:14;;;;;;;22.50;10.40;;;;;;;-128.00;-1.00;-1.00;133772;1274;1002086;-80
2023/03/16 08:59:17;;;;;;;20.50;10.70;;;;;;;-128.00;-1.00;-1.00;133809;1274;1002463;-80
2023/03/16 09:02:19;;;;;;;15.60;9.70;;;;;;;-128.00;-1.00;-1.00;133774;1274;1002322;-80
2023/03/16 09:05:22;;;;;;;14.00;7.50;;;;;;;-128.00;-1.00;-1.00;133828;1275;1002615;-80
2023/03/16 09:08:24;;;;;;;13.70;8.50;;;;;;;-128.00;-1.00;-1.00;133773;1274;1002698;-78
2023/03/16 09:11:29;;;;;;;19.30;8.10;;;;;;;-128.00;-1.00;-1.00;133780;1274;1003164;-78
2023/03/16 09:14:32;;;;;;;11.30;6.70;;;;;;;-128.00;-1.00;-1.00;133799;1274;1002221;-77
2023/03/16 09:17:35;;;;;;;39.50;14.10;;;;;;;-128.00;-1.00;-1.00;133763;1274;1002482;-77
2023/03/16 09:20:37;;;;;;;19.20;8.20;;;;;;;-128.00;-1.00;-1.00;133793;1275;1002365;-77
2023/03/16 09:23:40;;;;;;;14.20;7.50;;;;;;;-128.00;-1.00;-1.00;133806;1274;1002478;-77
2023/03/16 09:26:46;;;;;;;12.50;7.40;;;;;;;-128.00;-1.00;-1.00;133794;1274;1002375;-76
2023/03/16 09:29:51;;;;;;;23.50;8.20;;;;;;;-128.00;-1.00;-1.00;133788;1275;1001780;-78
2023/03/16 09:32:54;;;;;;;13.70;7.40;;;;;;;-128.00;-1.00;-1.00;133855;1274;1002173;-78
2023/03/16 09:35:57;;;;;;;16.30;7.20;;;;;;;-128.00;-1.00;-1.00;133947;1274;1002529;-80
2023/03/16 09:39:00;;;;;;;14.30;6.50;;;;;;;-128.00;-1.00;-1.00;133851;1274;1002765;-80
2023/03/16 09:42:03;;;;;;;15.50;6.50;;;;;;;-128.00;-1.00;-1.00;133857;1275;1002053;-80
2023/03/16 09:45:06;;;;;;;15.70;7.60;;;;;;;-128.00;-1.00;-1.00;133874;1274;1003026;-80
2023/03/16 09:48:08;;;;;;;12.50;6.40;;;;;;;-128.00;-1.00;-1.00;133804;1275;1002571;-81
2023/03/16 09:51:10;;;;;;;13.00;5.60;;;;;;;-128.00;-1.00;-1.00;133831;1275;1002971;-80
2023/03/16 09:54:14;;;;;;;12.70;4.80;;;;;;;-128.00;-1.00;-1.00;133897;1274;1002419;-79
2023/03/16 09:57:17;;;;;;;10.80;5.90;;;;;;;-128.00;-1.00;-1.00;133888;1274;1002573;-79
2023/03/16 10:00:19;;;;;;;17.30;6.00;;;;;;;-128.00;-1.00;-1.00;133904;1275;1002125;-80
2023/03/16 10:03:23;;;;;;;13.70;5.30;;;;;;;-128.00;-1.00;-1.00;133826;1274;1002249;-78
2023/03/16 10:06:25;;;;;;;12.40;6.30;;;;;;;-128.00;-1.00;-1.00;133812;1275;1002542;-77
2023/03/16 10:09:28;;;;;;;15.90;6.30;;;;;;;-128.00;-1.00;-1.00;133764;1275;1002460;-78
2023/03/16 10:12:30;;;;;;;10.50;4.90;;;;;;;-128.00;-1.00;-1.00;133805;1275;1002602;-80
2023/03/16 10:15:33;;;;;;;13.20;5.40;;;;;;;-128.00;-1.00;-1.00;133861;1275;1002280;-80
2023/03/16 10:18:35;;;;;;;16.60;4.60;;;;;;;-128.00;-1.00;-1.00;133838;1275;1002709;-79
2023/03/16 10:21:38;;;;;;;9.30;4.00;;;;;;;-128.00;-1.00;-1.00;133841;1275;1002443;-80
2023/03/16 10:24:41;;;;;;;14.60;4.50;;;;;;;-128.00;-1.00;-1.00;133895;1275;1002293;-79
2023/03/16 10:27:43;;;;;;;16.00;6.20;;;;;;;-128.00;-1.00;-1.00;133850;1274;1002529;-81
2023/03/16 10:30:46;;;;;;;12.80;6.00;;;;;;;-128.00;-1.00;-1.00;133815;1275;1002585;-77
2023/03/16 10:33:48;;;;;;;12.00;5.50;;;;;;;-128.00;-1.00;-1.00;133846;1275;1003107;-80
2023/03/16 10:36:52;;;;;;;10.90;4.70;;;;;;;-128.00;-1.00;-1.00;133827;1274;1001992;-80
2023/03/16 10:39:55;;;;;;;7.90;4.30;;;;;;;-128.00;-1.00;-1.00;133846;1274;1002435;-80
2023/03/16 10:42:57;;;;;;;9.90;6.70;;;;;;;-128.00;-1.00;-1.00;133820;1274;1002939;-81
2023/03/16 10:46:00;;;;;;;9.90;3.90;;;;;;;-128.00;-1.00;-1.00;133863;1275;1001785;-79
2023/03/16 10:49:03;;;;;;;8.00;3.40;;;;;;;-128.00;-1.00;-1.00;133862;1274;1002124;-80
2023/03/16 10:52:06;;;;;;;7.40;4.00;;;;;;;-128.00;-1.00;-1.00;133820;1275;1002744;-80
2023/03/16 10:55:09;;;;;;;7.10;3.70;;;;;;;-128.00;-1.00;-1.00;133808;1275;1002215;-81
2023/03/16 10:58:12;;;;;;;9.40;4.90;;;;;;;-128.00;-1.00;-1.00;133796;1275;1002297;-79
2023/03/16 11:01:14;;;;;;;6.90;4.10;;;;;;;-128.00;-1.00;-1.00;133848;1275;1002416;-80
2023/03/16 11:04:17;;;;;;;6.10;3.30;;;;;;;-128.00;-1.00;-1.00;133842;1274;1002382;-80
2023/03/16 11:07:19;;;;;;;6.20;3.40;;;;;;;-128.00;-1.00;-1.00;133814;1275;1001694;-78
2023/03/16 11:10:22;;;;;;;6.60;3.90;;;;;;;-128.00;-1.00;-1.00;133834;1275;1002602;-78
2023/03/16 11:13:25;;;;;;;9.20;4.20;;;;;;;-128.00;-1.00;-1.00;133836;1274;1001896;-78
2023/03/16 11:16:27;;;;;;;11.40;6.40;;;;;;;-128.00;-1.00;-1.00;133851;1274;1002132;-78
2023/03/16 11:19:30;;;;;;;7.80;4.10;;;;;;;-128.00;-1.00;-1.00;133839;1274;1002719;-80
2023/03/16 11:22:33;;;;;;;8.50;4.80;;;;;;;-128.00;-1.00;-1.00;133811;1275;1001941;-78
2023/03/16 11:25:35;;;;;;;6.90;4.00;;;;;;;-128.00;-1.00;-1.00;133790;1275;1002087;-79
2023/03/16 11:28:38;;;;;;;7.70;4.10;;;;;;;-128.00;-1.00;-1.00;133810;1274;1002109;-80
2023/03/16 11:31:41;;;;;;;9.30;3.70;;;;;;;-128.00;-1.00;-1.00;133815;1275;1002440;-80
2023/03/16 11:34:44;;;;;;;11.80;4.90;;;;;;;-128.00;-1.00;-1.00;133819;1275;1002090;-81
2023/03/16 11:37:47;;;;;;;8.80;4.60;;;;;;;-128.00;-1.00;-1.00;133819;1275;1001974;-80
2023/03/16 11:40:49;;;;;;;11.70;5.90;;;;;;;-128.00;-1.00;-1.00;133860;1274;1002855;-80
2023/03/16 11:43:52;;;;;;;8.20;4.30;;;;;;;-128.00;-1.00;-1.00;133816;1275;1002258;-80
2023/03/16 11:46:54;;;;;;;10.00;6.30;;;;;;;-128.00;-1.00;-1.00;133849;1274;1002506;-80
2023/03/16 11:49:57;;;;;;;8.30;4.30;;;;;;;-128.00;-1.00;-1.00;133812;1275;1002739;-80
2023/03/16 11:53:00;;;;;;;8.10;3.40;;;;;;;-128.00;-1.00;-1.00;133774;1274;1002819;-80
2023/03/16 11:56:02;;;;;;;6.60;3.90;;;;;;;-128.00;-1.00;-1.00;133785;1274;1002464;-80
2023/03/16 11:59:05;;;;;;;6.30;3.30;;;;;;;-128.00;-1.00;-1.00;133779;1275;1002467;-79
2023/03/16 12:02:07;;;;;;;14.50;4.60;;;;;;;-128.00;-1.00;-1.00;133808;1275;1002303;-80
2023/03/16 12:05:10;;;;;;;9.70;3.80;;;;;;;-128.00;-1.00;-1.00;133819;1275;1003254;-80
2023/03/16 12:08:13;;;;;;;6.20;3.60;;;;;;;-128.00;-1.00;-1.00;133797;1275;1002697;-79
2023/03/16 12:11:16;;;;;;;13.10;3.90;;;;;;;-128.00;-1.00;-1.00;133777;1275;1002210;-80
2023/03/16 12:14:18;;;;;;;7.20;3.80;;;;;;;-128.00;-1.00;-1.00;133788;1275;1002253;-79
2023/03/16 12:17:21;;;;;;;7.90;3.40;;;;;;;-128.00;-1.00;-1.00;133829;1275;1003094;-79
2023/03/16 12:20:23;;;;;;;7.60;3.50;;;;;;;-128.00;-1.00;-1.00;133809;1275;1001858;-79
2023/03/16 12:23:26;;;;;;;8.40;3.80;;;;;;;-128.00;-1.00;-1.00;133816;1275;1002432;-80
2023/03/16 12:26:29;;;;;;;11.00;4.80;;;;;;;-128.00;-1.00;-1.00;133838;1274;1002910;-80
2023/03/16 12:29:34;;;;;;;7.90;3.20;;;;;;;-128.00;-1.00;-1.00;133864;1274;1002535;-81
2023/03/16 12:32:36;;;;;;;6.60;2.90;;;;;;;-128.00;-1.00;-1.00;133852;1275;1002251;-80
2023/03/16 12:35:40;;;;;;;11.40;3.20;;;;;;;-128.00;-1.00;-1.00;133838;1275;1002122;-80
2023/03/16 12:38:42;;;;;;;10.50;3.60;;;;;;;-128.00;-1.00;-1.00;133859;1274;1002305;-79
2023/03/16 12:41:45;;;;;;;15.00;4.20;;;;;;;-128.00;-1.00;-1.00;133872;1275;1002757;-79
2023/03/16 12:44:47;;;;;;;5.70;3.00;;;;;;;-128.00;-1.00;-1.00;133833;1275;1002658;-79
2023/03/16 12:47:51;;;;;;;9.50;3.90;;;;;;;-128.00;-1.00;-1.00;133867;1275;1001681;-79
2023/03/16 12:50:54;;;;;;;12.70;4.00;;;;;;;-128.00;-1.00;-1.00;133850;1275;1002369;-80
2023/03/16 12:53:59;;;;;;;12.80;3.80;;;;;;;-128.00;-1.00;-1.00;133869;1274;1002228;-78
2023/03/16 12:57:02;;;;;;;12.00;3.20;;;;;;;-128.00;-1.00;-1.00;133868;1275;1002222;-78
2023/03/16 13:00:08;;;;;;;10.30;3.80;;;;;;;-128.00;-1.00;-1.00;133746;1275;1001905;-78
2023/03/16 13:03:10;;;;;;;5.70;2.70;;;;;;;-128.00;-1.00;-1.00;133796;1274;1002668;-80
2023/03/16 13:06:15;;;;;;;8.10;3.50;;;;;;;-128.00;-1.00;-1.00;133836;1275;1002859;-80
2023/03/16 13:09:18;;;;;;;9.90;3.80;;;;;;;-128.00;-1.00;-1.00;133719;1275;1002328;-78
2023/03/16 13:12:20;;;;;;;6.60;4.30;;;;;;;-128.00;-1.00;-1.00;133642;1275;1002305;-80
2023/03/16 13:15:23;;;;;;;7.60;3.40;;;;;;;-128.00;-1.00;-1.00;133758;1275;1002133;-80
2023/03/16 13:18:25;;;;;;;12.20;3.90;;;;;;;-128.00;-1.00;-1.00;133756;1274;1002489;-80
2023/03/16 13:21:28;;;;;;;15.80;5.70;;;;;;;-128.00;-1.00;-1.00;133761;1275;1002091;-78
2023/03/16 13:24:31;;;;;;;11.90;4.40;;;;;;;-128.00;-1.00;-1.00;133761;1274;1002184;-78
2023/03/16 13:27:34;;;;;;;10.70;5.70;;;;;;;-128.00;-1.00;-1.00;133779;1274;1002325;-78
2023/03/16 13:30:37;;;;;;;8.80;4.00;;;;;;;-128.00;-1.00;-1.00;133747;1275;1002302;-79
2023/03/16 13:33:40;;;;;;;11.30;5.10;;;;;;;-128.00;-1.00;-1.00;133767;1275;1002358;-78
2023/03/16 13:36:43;;;;;;;7.50;3.90;;;;;;;-128.00;-1.00;-1.00;133801;1274;1002728;-79
2023/03/16 13:39:45;;;;;;;13.00;3.70;;;;;;;-128.00;-1.00;-1.00;133774;1274;1002488;-79
2023/03/16 13:42:48;;;;;;;12.50;3.60;;;;;;;-128.00;-1.00;-1.00;133800;1275;1002389;-78
2023/03/16 13:45:51;;;;;;;9.70;3.90;;;;;;;-128.00;-1.00;-1.00;133815;1274;1002479;-79